Time;durP1;ratioP1;P1;durP2;ratioP2;P2;SDS_P1;SDS_P2;PMS_P1;PMS_P2;Temp;Humidity;BMP_temperature;BMP_pressure;BME280_temperature;BME280_humidity;BME280_pressure;Samples;Min_cycle;Max_cycle;Signal;HPM_P1;HPM_P2
2023/11/22 00:00:12;;;;;;;;;;;;;;;20.49;49.48;102042.78;5014783;28;6044;-74
2023/11/22 00:02:38;;;;;;;;;;;;;;;20.50;49.45;102047.19;5001676;28;2240;-73
2023/11/22 00:05:05;;;;;;;;;;;;;;;20.48;49.35;102060.69;4999154;28;2335;-74
2023/11/22 00:07:32;;;;;;;;;;;;;;;20.48;49.36;102049.94;4999416;28;2171;-74
2023/11/22 00:09:59;;;;;;;;;;;;;;;20.47;49.55;102053.41;4999225;28;2130;-74
2023/11/22 00:12:26;;;;;;;;;;;;;;;20.47;49.46;102053.41;5004100;28;2180;-74
2023/11/22 00:14:52;;;;;;;;;;;;;;;20.45;49.35;102062.66;5013541;28;2115;-73
2023/11/22 00:17:19;;;;;;;;;;;;;;;20.47;49.34;102076.44;5015250;28;1588;-74
2023/11/22 00:19:45;;;;;;;;;;;;;;;20.46;49.44;102080.69;5014379;28;2154;-74
2023/11/22 00:22:14;;;;;;;;;;;;;;;20.45;49.28;102084.94;5015824;28;2376;-74
2023/11/22 00:24:45;;;;;;;;;;;;;;;20.44;49.32;102084.19;5014966;28;2028;-74
2023/11/22 00:27:14;;;;;;;;;;;;;;;20.45;49.60;102087.81;5017323;28;1960;-74
2023/11/22 00:29:42;;;;;;;;;;;;;;;20.45;49.51;102097.19;5015265;28;2039;-74
2023/11/22 00:32:09;;;;;;;;;;;;;;;20.44;49.45;102084.19;5014873;28;6021;-74
2023/11/22 00:34:36;;;;;;;;;;;;;;;20.45;49.43;102090.69;5014148;28;2201;-74
2023/11/22 00:37:02;;;;;;;;;;;;;;;20.46;49.44;102087.19;5015717;28;2218;-74
2023/11/22 00:39:29;;;;;;;;;;;;;;;20.45;49.42;102090.69;5015090;28;2150;-73
2023/11/22 00:41:55;;;;;;;;;;;;;;;20.43;49.51;102097.06;5014625;28;2106;-74
2023/11/22 00:44:22;;;;;;;;;;;;;;;20.43;49.46;102099.97;5015565;28;2193;-74
2023/11/22 00:46:49;;;;;;;;;;;;;;;20.43;49.32;102111.47;4999219;28;1994;-73
2023/11/22 00:49:16;;;;;;;;;;;;;;;20.42;49.58;102109.94;5014854;28;2173;-73
2023/11/22 00:51:42;;;;;;;;;;;;;;;20.43;49.48;102110.69;5016354;28;2043;-74
2023/11/22 00:54:09;;;;;;;;;;;;;;;20.42;49.34;102109.94;5014044;28;2306;-73
2023/11/22 00:56:35;;;;;;;;;;;;;;;20.42;49.40;102114.94;5014497;28;2118;-74
2023/11/22 00:59:03;;;;;;;;;;;;;;;20.42;49.51;102121.44;5014719;28;2189;-74
2023/11/22 01:01:31;;;;;;;;;;;;;;;20.41;49.44;102122.06;5014472;28;6137;-74
2023/11/22 01:03:59;;;;;;;;;;;;;;;20.40;49.57;102126.31;5004140;28;2222;-74
2023/11/22 01:06:26;;;;;;;;;;;;;;;20.40;49.40;102117.69;4996673;28;2175;-74
2023/11/22 01:08:53;;;;;;;;;;;;;;;20.41;49.53;102119.97;5015030;28;2145;-74
2023/11/22 01:11:19;;;;;;;;;;;;;;;20.42;49.54;102114.94;5014941;28;2149;-74
2023/11/22 01:13:46;;;;;;;;;;;;;;;20.41;49.58;102117.09;5014799;28;2135;-73
2023/11/22 01:16:13;;;;;;;;;;;;;;;20.41;49.30;102113.44;5015030;28;1945;-74
2023/11/22 01:18:40;;;;;;;;;;;;;;;20.42;49.45;102103.44;5015049;28;2173;-74
2023/11/22 01:21:14;;;;;;;;;;;;;;;20.41;49.54;102111.31;5015533;28;1984;-74
2023/11/22 01:23:40;;;;;;;;;;;;;;;20.40;49.50;102109.81;4997465;28;2020;-74
2023/11/22 01:26:06;;;;;;;;;;;;;;;20.40;49.25;102106.94;5015375;28;2191;-74
2023/11/22 01:28:34;;;;;;;;;;;;;;;20.39;49.27;102110.44;5013141;28;2090;-74
2023/11/22 01:31:02;;;;;;;;;;;;;;;20.39;49.56;102111.19;5013421;28;6214;-73
2023/11/22 01:33:29;;;;;;;;;;;;;;;20.39;49.39;102113.31;4998725;28;1946;-74
2023/11/22 01:35:56;;;;;;;;;;;;;;;20.37;49.44;102116.81;5014673;28;2306;-74
2023/11/22 01:38:23;;;;;;;;;;;;;;;20.36;49.55;102106.66;5013124;28;2107;-73
2023/11/22 01:40:50;;;;;;;;;;;;;;;20.36;49.54;102109.53;5014184;28;2075;-73
2023/11/22 01:43:17;;;;;;;;;;;;;;;20.36;49.55;102109.53;5013996;28;2197;-73
2023/11/22 01:45:44;;;;;;;;;;;;;;;20.36;49.24;102126.78;5016093;28;2264;-74
2023/11/22 01:48:11;;;;;;;;;;;;;;;20.36;49.43;102129.66;5015898;28;2082;-73
2023/11/22 01:50:40;;;;;;;;;;;;;;;20.37;49.17;102119.69;5014447;28;1647;-73
2023/11/22 01:53:06;;;;;;;;;;;;;;;20.37;49.43;102125.44;5002551;28;2179;-74
2023/11/22 01:55:33;;;;;;;;;;;;;;;20.37;49.31;102131.19;5013522;28;2224;-74
2023/11/22 01:58:01;;;;;;;;;;;;;;;20.38;49.49;102149.19;5014138;28;2067;-74
2023/11/22 02:00:28;;;;;;;;;;;;;;;20.38;49.32;102146.31;4997431;28;6155;-73
2023/11/22 02:02:55;;;;;;;;;;;;;;;20.36;49.31;102146.94;5013466;28;2027;-74
2023/11/22 02:05:22;;;;;;;;;;;;;;;20.35;49.45;102145.44;4997358;28;2242;-74
2023/11/22 02:07:49;;;;;;;;;;;;;;;20.35;49.33;102153.31;5014725;28;2186;-74
2023/11/22 02:10:16;;;;;;;;;;;;;;;20.34;49.52;102154.69;5013723;28;2170;-73
2023/11/22 02:12:43;;;;;;;;;;;;;;;20.32;49.57;102146.69;5012257;28;2389;-73
2023/11/22 02:15:09;;;;;;;;;;;;;;;20.30;49.57;102143.66;5015165;28;2091;-73
2023/11/22 02:17:36;;;;;;;;;;;;;;;20.32;49.62;102151.66;5012995;28;2071;-74
2023/11/22 02:20:09;;;;;;;;;;;;;;;20.30;49.35;102153.03;4996589;28;2214;-73
2023/11/22 02:22:43;;;;;;;;;;;;;;;20.30;49.57;102158.06;5012100;28;2139;-73
2023/11/22 02:25:09;;;;;;;;;;;;;;;20.30;49.51;102158.06;5012959;28;2266;-73
2023/11/22 02:27:37;;;;;;;;;;;;;;;20.31;49.58;102159.53;4980423;28;2232;-73
2023/11/22 02:30:06;;;;;;;;;;;;;;;20.30;49.30;102155.91;5007304;28;5982;-70
2023/11/22 02:32:39;;;;;;;;;;;;;;;20.31;49.50;102168.19;5011885;28;2285;-74
2023/11/22 02:35:07;;;;;;;;;;;;;;;20.32;49.59;102174.69;5013261;28;2012;-73
2023/11/22 02:37:37;;;;;;;;;;;;;;;20.32;49.54;102186.19;5002195;28;2265;-73
2023/11/22 02:40:19;;;;;;;;;;;;;;;20.31;49.28;102191.19;4997242;28;2139;-73
2023/11/22 02:42:49;;;;;;;;;;;;;;;20.32;49.37;102194.81;5011701;28;2222;-73
2023/11/22 02:45:15;;;;;;;;;;;;;;;20.30;49.44;102195.44;5010697;28;2177;-73
2023/11/22 02:47:46;;;;;;;;;;;;;;;20.29;49.35;102188.94;5014233;28;2190;-73
2023/11/22 02:50:13;;;;;;;;;;;;;;;20.28;49.45;102204.69;5012099;28;2102;-73
2023/11/22 02:52:40;;;;;;;;;;;;;;;20.28;49.47;102203.94;4995165;28;2032;-73
2023/11/22 02:55:09;;;;;;;;;;;;;;;20.26;49.42;102218.94;5012896;28;2118;-74
2023/11/22 02:57:36;;;;;;;;;;;;;;;20.28;49.38;102224.06;5012499;28;2275;-72
2023/11/22 03:00:07;;;;;;;;;;;;;;;20.35;49.37;102226.00;5012513;28;6050;-71
2023/11/22 03:02:34;;;;;;;;;;;;;;;20.41;49.25;102243.69;4995135;28;2294;-73
2023/11/22 03:05:01;;;;;;;;;;;;;;;20.41;49.01;102246.56;5014247;28;2271;-73
2023/11/22 03:07:27;;;;;;;;;;;;;;;20.41;49.12;102252.31;5012481;28;2143;-73
2023/11/22 03:09:53;;;;;;;;;;;;;;;20.39;49.14;102243.53;5013371;28;2224;-73
2023/11/22 03:12:20;;;;;;;;;;;;;;;20.42;49.25;102241.56;5014310;28;2086;-73
2023/11/22 03:14:50;;;;;;;;;;;;;;;20.41;49.12;102240.81;5013155;28;2161;-73
2023/11/22 03:17:17;;;;;;;;;;;;;;;20.41;49.12;102251.53;5013562;28;2205;-73
2023/11/22 03:19:46;;;;;;;;;;;;;;;20.40;49.14;102250.78;5012663;28;2098;-73
2023/11/22 03:22:12;;;;;;;;;;;;;;;20.39;49.13;102263.69;5010866;28;2194;-73
2023/11/22 03:24:39;;;;;;;;;;;;;;;20.39;49.19;102266.56;5011458;28;2170;-73
2023/11/22 03:27:06;;;;;;;;;;;;;;;20.38;48.96;102259.28;5012514;28;1985;-73
2023/11/22 03:29:33;;;;;;;;;;;;;;;20.38;49.13;102265.03;4995245;28;2005;-73
2023/11/22 03:31:59;;;;;;;;;;;;;;;20.36;49.19;102267.75;5010132;28;6249;-73
2023/11/22 03:34:26;;;;;;;;;;;;;;;20.36;49.13;102267.75;5013448;28;2154;-73
2023/11/22 03:36:53;;;;;;;;;;;;;;;20.37;49.20;102263.53;5011966;28;2091;-73
2023/11/22 03:39:20;;;;;;;;;;;;;;;20.34;49.28;102267.66;5014263;28;1894;-73
2023/11/22 03:41:46;;;;;;;;;;;;;;;20.34;49.23;102264.78;5012591;28;2099;-71
2023/11/22 03:44:12;;;;;;;;;;;;;;;20.33;49.12;102263.25;5012826;28;2265;-73
2023/11/22 03:46:40;;;;;;;;;;;;;;;20.33;49.26;102257.50;5012733;28;2224;-73
2023/11/22 03:49:06;;;;;;;;;;;;;;;20.34;49.07;102258.25;5012247;28;1566;-73
2023/11/22 03:51:33;;;;;;;;;;;;;;;20.35;49.03;102266.28;5011614;28;2195;-73
2023/11/22 03:53:59;;;;;;;;;;;;;;;20.36;49.17;102264.13;4998949;28;2242;-73
2023/11/22 03:56:26;;;;;;;;;;;;;;;20.38;49.17;102275.78;4995780;28;2280;-73
2023/11/22 03:58:54;;;;;;;;;;;;;;;20.38;48.86;102267.91;5011919;28;2173;-73
2023/11/22 04:01:20;;;;;;;;;;;;;;;20.38;49.06;102293.81;5012159;28;7090;-73
2023/11/22 04:03:48;;;;;;;;;;;;;;;20.39;48.96;102289.56;5013016;28;2127;-73
2023/11/22 04:06:15;;;;;;;;;;;;;;;20.40;48.91;102302.59;5010936;28;2202;-74
2023/11/22 04:08:45;;;;;;;;;;;;;;;20.38;49.01;102293.81;5012504;28;1807;-73
2023/11/22 04:11:12;;;;;;;;;;;;;;;20.39;49.13;102295.31;5011975;28;2158;-74
2023/11/22 04:13:38;;;;;;;;;;;;;;;20.39;49.00;102278.06;5012217;28;2488;-73
2023/11/22 04:16:08;;;;;;;;;;;;;;;20.39;49.09;102275.19;5012960;28;2091;-73
2023/11/22 04:18:38;;;;;;;;;;;;;;;20.40;49.17;102273.06;5014263;28;2166;-74
2023/11/22 04:21:05;;;;;;;;;;;;;;;20.41;49.05;102278.22;5013572;28;2429;-74
2023/11/22 04:23:34;;;;;;;;;;;;;;;20.41;48.86;102281.09;5015095;28;2083;-73
2023/11/22 04:26:01;;;;;;;;;;;;;;;20.40;49.05;102291.06;5014164;28;2035;-72
2023/11/22 04:28:29;;;;;;;;;;;;;;;20.42;49.12;102290.47;5014458;28;2229;-74
2023/11/22 04:30:56;;;;;;;;;;;;;;;20.41;49.12;102298.34;4998360;28;6017;-73
2023/11/22 04:33:23;;;;;;;;;;;;;;;20.41;49.08;102309.84;5015433;28;2020;-73
2023/11/22 04:35:49;;;;;;;;;;;;;;;20.41;49.14;102321.38;4999946;28;2133;-72
2023/11/22 04:38:16;;;;;;;;;;;;;;;20.39;49.13;102324.09;5014156;28;2354;-73
2023/11/22 04:40:42;;;;;;;;;;;;;;;20.40;48.99;102331.34;5014838;28;2213;-73
2023/11/22 04:43:09;;;;;;;;;;;;;;;20.40;49.07;102330.59;5014816;28;2086;-73
2023/11/22 04:45:35;;;;;;;;;;;;;;;20.40;49.04;102331.34;5014808;28;1873;-73
2023/11/22 04:48:01;;;;;;;;;;;;;;;20.41;49.05;102349.38;5014601;28;2174;-72
2023/11/22 04:50:28;;;;;;;;;;;;;;;20.40;49.05;102348.63;5015541;28;2739;-73
2023/11/22 04:52:54;;;;;;;;;;;;;;;20.41;49.11;102350.16;5012806;28;2198;-73
2023/11/22 04:55:24;;;;;;;;;;;;;;;20.42;49.02;102354.53;5015151;28;2227;-73
2023/11/22 04:57:52;;;;;;;;;;;;;;;20.41;49.13;102349.38;5015353;28;2166;-73
2023/11/22 05:00:19;;;;;;;;;;;;;;;20.42;49.14;102348.00;5013266;28;6003;-74
2023/11/22 05:02:45;;;;;;;;;;;;;;;20.42;49.07;102359.53;5012260;28;2540;-74
2023/11/22 05:05:12;;;;;;;;;;;;;;;20.43;48.80;102370.44;5014234;28;2432;-73
2023/11/22 05:07:38;;;;;;;;;;;;;;;20.42;49.00;102368.91;5014434;28;2147;-73
2023/11/22 05:10:09;;;;;;;;;;;;;;;20.42;49.02;102380.41;5014726;28;2136;-73
2023/11/22 05:12:36;;;;;;;;;;;;;;;20.44;48.83;102374.06;5015479;28;2151;-73
2023/11/22 05:15:02;;;;;;;;;;;;;;;20.43;48.85;102364.66;5013711;28;2195;-73
2023/11/22 05:17:29;;;;;;;;;;;;;;;20.44;49.00;102360.41;4996696;28;2189;-73
2023/11/22 05:19:56;;;;;;;;;;;;;;;20.43;48.94;102367.56;5013883;28;2253;-72
2023/11/22 05:22:25;;;;;;;;;;;;;;;20.45;48.92;102372.69;5014212;28;2261;-73
2023/11/22 05:24:51;;;;;;;;;;;;;;;20.44;49.01;102376.94;5013280;28;2181;-73
2023/11/22 05:27:18;;;;;;;;;;;;;;;20.42;48.98;102383.28;5014247;28;1957;-73
2023/11/22 05:29:44;;;;;;;;;;;;;;;20.42;48.85;102396.94;5012171;28;2213;-73
2023/11/22 05:32:22;;;;;;;;;;;;;;;20.42;48.89;102408.44;5014627;28;6478;-73
2023/11/22 05:34:49;;;;;;;;;;;;;;;20.41;49.08;102419.19;5012574;28;2217;-73
2023/11/22 05:37:15;;;;;;;;;;;;;;;20.42;48.86;102420.69;5013487;28;2578;-73
2023/11/22 05:39:42;;;;;;;;;;;;;;;20.43;49.01;102422.22;5014506;28;2150;-73
2023/11/22 05:42:09;;;;;;;;;;;;;;;20.43;48.81;102422.22;5014200;28;2130;-73
2023/11/22 05:44:35;;;;;;;;;;;;;;;20.43;49.00;102412.81;5013489;28;2190;-73
2023/11/22 05:47:02;;;;;;;;;;;;;;;20.42;49.11;102412.06;5014178;28;2134;-73
2023/11/22 05:49:28;;;;;;;;;;;;;;;20.42;49.02;102403.44;5012061;28;2202;-73
2023/11/22 05:51:55;;;;;;;;;;;;;;;20.42;48.73;102414.19;5011454;28;2160;-73
2023/11/22 05:54:21;;;;;;;;;;;;;;;20.44;48.78;102411.47;5012702;28;2147;-72
2023/11/22 05:56:47;;;;;;;;;;;;;;;20.43;49.04;102402.09;5013887;28;2067;-71
2023/11/22 05:59:14;;;;;;;;;;;;;;;20.44;48.67;102402.81;5013061;28;2244;-70
2023/11/22 06:01:40;;;;;;;;;;;;;;;20.44;48.91;102406.47;4995935;28;6080;-78
2023/11/22 06:04:09;;;;;;;;;;;;;;;20.50;49.13;102406.13;5012705;28;2581;-73
2023/11/22 06:06:36;;;;;;;;;;;;;;;20.56;48.77;102406.59;5016029;28;2589;-69
2023/11/22 06:09:02;;;;;;;;;;;;;;;20.55;48.89;102410.81;5012526;28;2390;-69
2023/11/22 06:11:31;;;;;;;;;;;;;;;20.57;48.96;102418.84;5013470;28;2380;-69
2023/11/22 06:13:58;;;;;;;;;;;;;;;20.57;48.79;102421.72;5013550;28;2217;-70
2023/11/22 06:16:24;;;;;;;;;;;;;;;20.58;48.79;102429.00;5014516;28;2087;-71
2023/11/22 06:18:51;;;;;;;;;;;;;;;20.56;48.94;102429.59;5014811;28;1845;-70
2023/11/22 06:21:18;;;;;;;;;;;;;;;20.60;48.81;102440.66;5014707;28;1549;-70
2023/11/22 06:23:46;;;;;;;;;;;;;;;20.61;48.63;102445.03;5012766;28;2343;-70
2023/11/22 06:26:12;;;;;;;;;;;;;;;20.62;48.86;102449.44;5014448;28;2327;-70
2023/11/22 06:28:39;;;;;;;;;;;;;;;20.65;48.63;102448.22;5012605;28;2319;-69
2023/11/22 06:31:05;;;;;;;;;;;;;;;20.66;48.77;102446.84;5013308;28;6022;-69
2023/11/22 06:33:31;;;;;;;;;;;;;;;20.68;48.64;102446.97;5012494;28;2256;-69
2023/11/22 06:36:05;;;;;;;;;;;;;;;20.66;48.67;102436.09;5013839;28;1727;-70
2023/11/22 06:38:31;;;;;;;;;;;;;;;20.67;49.04;102436.84;5009384;28;4268;-75
2023/11/22 06:40:59;;;;;;;;;;;;;;;20.70;49.44;102455.75;5012799;28;2925;-80
2023/11/22 06:43:26;;;;;;;;;;;;;;;13.94;43.00;102456.41;5013466;28;2457;-72
2023/11/22 06:45:58;;;;;;;;;;;;;;;18.45;49.10;102473.41;5014632;28;2472;-77
2023/11/22 06:48:25;;;;;;;;;;;;;;;19.78;46.53;102489.38;5013676;28;2444;-77
2023/11/22 06:50:51;;;;;;;;;;;;;;;20.29;45.96;102487.34;5015696;28;1676;-75
2023/11/22 06:53:20;;;;;;;;;;;;;;;20.52;45.24;102486.84;5011577;28;2342;-77
2023/11/22 06:55:46;;;;;;;;;;;;;;;20.66;43.34;102504.41;5012290;28;2480;-78
2023/11/22 06:58:13;;;;;;;;;;;;;;;20.75;42.23;102508.63;5012573;28;2421;-79
2023/11/22 07:00:40;;;;;;;;;;;;;;;20.82;42.20;102525.72;5012757;28;6171;-78
2023/11/22 07:03:08;;;;;;;;;;;;;;;20.88;41.02;102516.75;5011455;28;3097;-76
2023/11/22 07:05:35;;;;;;;;;;;;;;;20.85;39.05;102510.09;5010348;28;3708;-75
2023/11/22 07:08:03;;;;;;;;;;;;;;;20.73;40.43;102517.09;5013712;28;2304;-74
2023/11/22 07:10:33;;;;;;;;;;;;;;;17.92;32.22;102522.22;5012397;28;2362;-73
2023/11/22 07:13:20;;;;;;;;;;;;;;;18.91;35.30;102518.66;5011945;28;2371;-73
2023/11/22 07:15:57;;;;;;;;;;;;;;;19.70;37.76;102526.91;5013467;28;3110;-73
2023/11/22 07:18:33;;;;;;;;;;;;;;;19.99;38.42;102523.28;5013005;28;2205;-74
2023/11/22 07:21:00;;;;;;;;;;;;;;;20.09;38.79;102515.41;5010846;28;2846;-74
2023/11/22 07:23:28;;;;;;;;;;;;;;;20.18;39.15;102529.03;5013976;28;1929;-74
2023/11/22 07:25:55;;;;;;;;;;;;;;;20.23;40.07;102524.34;5014301;28;1774;-74
2023/11/22 07:28:22;;;;;;;;;;;;;;;20.29;41.01;102527.63;5012281;28;1791;-74
2023/11/22 07:30:48;;;;;;;;;;;;;;;20.32;41.62;102531.41;5012860;28;6059;-74
2023/11/22 07:33:15;;;;;;;;;;;;;;;20.36;41.71;102543.97;5013543;28;1937;-74
2023/11/22 07:35:41;;;;;;;;;;;;;;;20.39;42.10;102553.53;4997803;28;2396;-74
2023/11/22 07:38:10;;;;;;;;;;;;;;;20.38;42.06;102557.75;5014735;28;1775;-74
2023/11/22 07:40:37;;;;;;;;;;;;;;;20.38;42.66;102541.25;5009938;28;3904;-75
2023/11/22 07:43:04;;;;;;;;;;;;;;;20.34;43.30;102540.97;5014473;28;3715;-77
2023/11/22 07:45:31;;;;;;;;;;;;;;;20.64;44.25;102527.31;5015818;28;3942;-75
2023/11/22 07:47:59;;;;;;;;;;;;;;;20.77;44.62;102523.91;5015800;28;3593;-75
2023/11/22 07:50:26;;;;;;;;;;;;;;;20.56;43.38;102527.47;5013969;28;2406;-78
2023/11/22 07:52:52;;;;;;;;;;;;;;;20.71;44.24;102529.25;5014325;28;2324;-75
2023/11/22 07:55:19;;;;;;;;;;;;;;;20.79;44.68;102521.19;5017654;28;1600;-77
2023/11/22 07:57:45;;;;;;;;;;;;;;;20.90;44.57;102520.53;5016672;28;3980;-75
2023/11/22 08:00:12;;;;;;;;;;;;;;;21.01;44.31;102501.84;5017650;28;6240;-75
2023/11/22 08:02:39;;;;;;;;;;;;;;;21.10;44.19;102503.19;5018521;28;3402;-75
2023/11/22 08:05:08;;;;;;;;;;;;;;;21.19;44.50;102504.47;5017606;28;2208;-76
2023/11/22 08:07:38;;;;;;;;;;;;;;;21.11;44.79;102499.66;5017669;28;2492;-76
2023/11/22 08:10:09;;;;;;;;;;;;;;;21.30;45.00;102498.03;5014608;28;2428;-76
2023/11/22 08:12:39;;;;;;;;;;;;;;;21.30;45.31;102487.28;5017942;28;2533;-75
2023/11/22 08:15:05;;;;;;;;;;;;;;;21.45;45.38;102496.91;5015434;28;2855;-75
2023/11/22 08:17:35;;;;;;;;;;;;;;;21.47;45.28;102494.94;5017751;28;2432;-76
2023/11/22 08:20:05;;;;;;;;;;;;;;;21.47;45.27;102486.28;5016780;28;2400;-75
2023/11/22 08:22:35;;;;;;;;;;;;;;;21.52;45.26;102482.28;5017960;28;1914;-75
2023/11/22 08:25:03;;;;;;;;;;;;;;;21.50;45.41;102485.03;5016592;28;2428;-73
2023/11/22 08:27:29;;;;;;;;;;;;;;;21.60;45.76;102489.97;5014380;28;2426;-76
2023/11/22 08:29:56;;;;;;;;;;;;;;;21.24;45.33;102512.78;5014411;28;2814;-75
2023/11/22 08:32:27;;;;;;;;;;;;;;;21.06;46.26;102520.16;5015208;28;6015;-75
2023/11/22 08:34:54;;;;;;;;;;;;;;;20.99;46.50;102515.34;5009935;28;6130;-74
2023/11/22 08:37:21;;;;;;;;;;;;;;;20.95;46.59;102527.34;5016024;28;2444;-74
2023/11/22 08:39:48;;;;;;;;;;;;;;;20.94;46.79;102525.84;5013628;28;3889;-76
2023/11/22 08:42:15;;;;;;;;;;;;;;;20.87;46.80;102516.00;5012895;28;2336;-76
2023/11/22 08:44:44;;;;;;;;;;;;;;;20.84;46.68;102525.84;5012855;28;2320;-75
2023/11/22 08:47:11;;;;;;;;;;;;;;;20.84;46.92;102537.38;5013835;28;2280;-76
2023/11/22 08:49:38;;;;;;;;;;;;;;;20.82;46.97;102548.78;5013712;28;2268;-76
2023/11/22 08:52:07;;;;;;;;;;;;;;;20.83;47.29;102543.75;5014157;28;2197;-75
2023/11/22 08:54:33;;;;;;;;;;;;;;;20.81;46.70;102544.38;5016456;28;1623;-75
2023/11/22 08:57:01;;;;;;;;;;;;;;;20.70;47.27;102554.38;5016668;28;2052;-77
2023/11/22 08:59:29;;;;;;;;;;;;;;;17.08;51.33;102554.47;5013965;28;2358;-77
2023/11/22 09:01:55;;;;;;;;;;;;;;;19.32;47.21;102562.03;5014715;28;2316;-73
2023/11/22 09:04:24;;;;;;;;;;;;;;;20.20;46.41;102552.19;5012565;28;3859;-72
2023/11/22 09:06:50;;;;;;;;;;;;;;;20.63;46.03;102555.31;5014131;28;2458;-73
2023/11/22 09:09:17;;;;;;;;;;;;;;;20.86;46.05;102549.03;5012633;28;3743;-73
2023/11/22 09:11:44;;;;;;;;;;;;;;;20.99;46.00;102544.16;5011614;28;2345;-74
2023/11/22 09:14:10;;;;;;;;;;;;;;;21.07;45.63;102528.22;5014144;28;2271;-73
2023/11/22 09:16:38;;;;;;;;;;;;;;;21.13;45.79;102530.75;4997499;28;2403;-74
2023/11/22 09:19:06;;;;;;;;;;;;;;;21.13;46.21;102524.97;5017100;28;2267;-74
2023/11/22 09:21:33;;;;;;;;;;;;;;;20.99;46.18;102509.59;5016570;28;1651;-74
2023/11/22 09:23:59;;;;;;;;;;;;;;;20.43;43.35;102502.00;5017364;28;6035;-68
2023/11/22 09:26:26;;;;;;;;;;;;;;;20.63;44.06;102497.00;5015187;28;2201;-68
2023/11/22 09:28:53;;;;;;;;;;;;;;;20.64;45.52;102498.53;5013991;28;2242;-73
2023/11/22 09:31:20;;;;;;;;;;;;;;;20.18;42.85;102502.38;5013915;28;6167;-74
2023/11/22 09:33:47;;;;;;;;;;;;;;;20.27;43.28;102484.34;5013561;28;2201;-75
2023/11/22 09:36:14;;;;;;;;;;;;;;;20.41;44.68;102479.63;5013526;28;2292;-70
2023/11/22 09:38:41;;;;;;;;;;;;;;;20.57;45.50;102485.03;5013477;28;2107;-80
2023/11/22 09:41:08;;;;;;;;;;;;;;;20.54;45.46;102489.13;4997545;28;2260;-76
2023/11/22 09:43:35;;;;;;;;;;;;;;;20.23;42.34;102489.81;4998771;28;2009;-76
2023/11/22 09:46:02;;;;;;;;;;;;;;;19.98;39.20;102493.78;5015112;28;1898;-76
2023/11/22 09:48:29;;;;;;;;;;;;;;;19.85;37.77;102497.09;4998226;28;2122;-76
2023/11/22 09:51:02;;;;;;;;;;;;;;;19.78;36.43;102493.00;4998132;28;2004;-76
2023/11/22 09:53:33;;;;;;;;;;;;;;;19.71;35.63;102481.69;5015738;28;2042;-75
2023/11/22 09:56:01;;;;;;;;;;;;;;;19.91;37.03;102488.94;5013737;28;2064;-75
2023/11/22 09:58:29;;;;;;;;;;;;;;;20.15;38.67;102501.47;5013449;28;2033;-75
2023/11/22 10:00:56;;;;;;;;;;;;;;;20.30;39.14;102514.78;4997227;28;1807;-74
2023/11/22 10:03:23;;;;;;;;;;;;;;;20.38;39.84;102512.47;4997452;28;1971;-75
2023/11/22 10:05:52;;;;;;;;;;;;;;;20.43;40.03;102520.06;5014147;28;2135;-75
2023/11/22 10:08:20;;;;;;;;;;;;;;;20.45;40.24;102505.78;5013698;28;2037;-75
2023/11/22 10:10:51;;;;;;;;;;;;;;;20.47;40.50;102508.81;4999455;28;1653;-75
2023/11/22 10:13:20;;;;;;;;;;;;;;;20.50;40.80;102518.34;4999755;28;1911;-75
2023/11/22 10:15:49;;;;;;;;;;;;;;;20.51;41.10;102519.88;5013264;28;1635;-75
2023/11/22 10:18:17;;;;;;;;;;;;;;;20.51;41.24;102532.16;5014893;28;1676;-75
2023/11/22 10:20:46;;;;;;;;;;;;;;;20.53;41.84;102522.16;5002547;28;1862;-74
2023/11/22 10:23:17;;;;;;;;;;;;;;;20.55;41.72;102528.03;4998271;28;1914;-74
2023/11/22 10:25:49;;;;;;;;;;;;;;;20.56;41.96;102520.94;5013986;28;1820;-75
2023/11/22 10:28:17;;;;;;;;;;;;;;;20.56;42.40;102529.56;4996558;28;1593;-74
2023/11/22 10:30:48;;;;;;;;;;;;;;;20.55;42.46;102542.44;5014885;28;1617;-73
2023/11/22 10:33:15;;;;;;;;;;;;;;;20.54;42.93;102544.56;5013925;28;1651;-74
2023/11/22 10:35:45;;;;;;;;;;;;;;;20.55;42.83;102542.44;4996846;28;1808;-74
2023/11/22 10:38:15;;;;;;;;;;;;;;;20.53;42.94;102536.56;5015357;28;1798;-74
2023/11/22 10:40:44;;;;;;;;;;;;;;;20.51;43.27;102532.16;5014309;28;1616;-74
2023/11/22 10:43:11;;;;;;;;;;;;;;;20.54;43.30;102529.41;5014371;28;1987;-74
2023/11/22 10:45:38;;;;;;;;;;;;;;;20.54;43.55;102523.66;5013390;28;1874;-74
2023/11/22 10:48:08;;;;;;;;;;;;;;;20.56;43.66;102529.56;5013903;28;1623;-74
2023/11/22 10:50:37;;;;;;;;;;;;;;;20.56;43.64;102538.97;4997851;28;1649;-75
2023/11/22 10:53:06;;;;;;;;;;;;;;;20.57;43.74;102539.72;5015435;28;1588;-74
2023/11/22 10:55:32;;;;;;;;;;;;;;;20.57;43.96;102545.47;4996869;28;1708;-74
2023/11/22 10:58:02;;;;;;;;;;;;;;;20.58;44.05;102552.78;5013870;28;1662;-75
2023/11/22 11:00:29;;;;;;;;;;;;;;;20.57;43.90;102554.13;5012862;28;6177;-75
2023/11/22 11:02:59;;;;;;;;;;;;;;;20.57;44.13;102531.09;5014730;28;1686;-74
2023/11/22 11:05:28;;;;;;;;;;;;;;;20.56;44.32;102538.97;4995693;28;1600;-74
2023/11/22 11:07:59;;;;;;;;;;;;;;;20.56;44.29;102541.06;5013865;28;1791;-74
2023/11/22 11:10:26;;;;;;;;;;;;;;;20.56;44.46;102532.44;5013674;28;1778;-75
2023/11/22 11:12:53;;;;;;;;;;;;;;;20.56;44.36;102527.47;4995784;28;1800;-74
2023/11/22 11:15:21;;;;;;;;;;;;;;;20.57;44.50;102508.84;5013820;28;1628;-74
2023/11/22 11:17:49;;;;;;;;;;;;;;;20.58;44.69;102507.47;4996722;28;1974;-74
2023/11/22 11:20:17;;;;;;;;;;;;;;;20.58;44.46;102512.47;5002827;28;1666;-74
2023/11/22 11:22:45;;;;;;;;;;;;;;;20.59;44.66;102513.97;5013091;28;1588;-74
2023/11/22 11:25:13;;;;;;;;;;;;;;;20.60;44.72;102495.34;4998719;28;1906;-74
2023/11/22 11:27:39;;;;;;;;;;;;;;;20.59;44.90;102505.34;5016811;28;1545;-74
2023/11/22 11:30:38;;;;;;;;;;;;;;;20.60;45.06;102498.22;5001892;28;1839;-75
2023/11/22 11:33:07;;;;;;;;;;;;;;;20.60;44.88;102510.50;4984975;28;1790;-74
2023/11/22 11:35:41;;;;;;;;;;;;;;;20.60;44.98;102504.00;5018754;28;1666;-74
2023/11/22 11:38:09;;;;;;;;;;;;;;;20.59;45.24;102485.19;5018022;28;1604;-75
2023/11/22 11:40:36;;;;;;;;;;;;;;;20.59;45.24;102474.44;5017465;28;1631;-75
2023/11/22 11:43:04;;;;;;;;;;;;;;;20.59;45.23;102467.91;5017618;28;1798;-74
2023/11/22 11:45:31;;;;;;;;;;;;;;;20.60;45.14;102463.69;5017423;28;1941;-74
2023/11/22 11:47:57;;;;;;;;;;;;;;;20.59;45.36;102462.94;5001492;28;1677;-75
2023/11/22 11:50:24;;;;;;;;;;;;;;;20.60;45.38;102452.19;5017016;28;1619;-75
2023/11/22 11:52:51;;;;;;;;;;;;;;;20.62;45.39;102461.72;5016299;28;1687;-74
2023/11/22 11:55:20;;;;;;;;;;;;;;;20.65;45.41;102456.84;5016758;28;1782;-75
2023/11/22 11:57:46;;;;;;;;;;;;;;;20.63;45.20;102439.44;5017989;28;1585;-75
2023/11/22 12:00:14;;;;;;;;;;;;;;;20.64;45.53;102429.44;5017634;28;1624;-78
2023/11/22 12:02:40;;;;;;;;;;;;;;;20.63;45.59;102427.91;5017358;28;1791;-69
2023/11/22 12:05:10;;;;;;;;;;;;;;;20.66;46.33;102433.22;5016501;28;1929;-73
2023/11/22 12:07:37;;;;;;;;;;;;;;;20.53;46.31;102430.81;5015991;28;1584;-74
2023/11/22 12:10:05;;;;;;;;;;;;;;;20.39;45.41;102424.06;5017353;28;1668;-74
2023/11/22 12:12:32;;;;;;;;;;;;;;;20.42;44.38;102414.94;5015777;28;2032;-74
2023/11/22 12:14:59;;;;;;;;;;;;;;;20.50;44.03;102409.78;5018104;28;1644;-73
2023/11/22 12:17:26;;;;;;;;;;;;;;;20.57;45.39;102398.69;5015696;28;1572;-74
2023/11/22 12:19:53;;;;;;;;;;;;;;;20.59;45.58;102395.97;5015397;28;6033;-73
2023/11/22 12:22:20;;;;;;;;;;;;;;;20.61;45.42;102390.34;5016575;28;1795;-73
2023/11/22 12:24:46;;;;;;;;;;;;;;;20.64;45.93;102369.75;5016334;28;1906;-73
2023/11/22 12:27:14;;;;;;;;;;;;;;;20.65;45.94;102350.34;5016306;28;1774;-73
2023/11/22 12:29:41;;;;;;;;;;;;;;;20.67;46.06;102354.09;5016328;28;1888;-73
2023/11/22 12:32:08;;;;;;;;;;;;;;;20.68;45.78;102337.59;5015886;28;1596;-74
2023/11/22 12:34:34;;;;;;;;;;;;;;;20.68;46.03;102343.34;4999086;28;1682;-72
2023/11/22 12:37:01;;;;;;;;;;;;;;;20.71;45.91;102353.66;5006845;28;1635;-73
2023/11/22 12:39:28;;;;;;;;;;;;;;;20.70;46.11;102352.13;5016433;28;1579;-73
2023/11/22 12:41:56;;;;;;;;;;;;;;;20.70;45.82;102375.91;5015190;28;1553;-73
2023/11/22 12:44:52;;;;;;;;;;;;;;;20.70;46.16;102375.16;5017421;28;2000;-73
2023/11/22 12:47:34;;;;;;;;;;;;;;;20.70;46.52;102403.94;5015312;28;1818;-74
2023/11/22 12:50:03;;;;;;;;;;;;;;;20.70;46.36;102426.97;5015749;28;1671;-74